sensor_id;sensor_type;location;lat;lon;timestamp;temperature;humidity
42979;DHT22;28616;44.746;19.678;2022-07-22T00:01:31;23.90;63.60
42979;DHT22;28616;44.746;19.678;2022-07-22T00:03:57;23.80;63.90
42979;DHT22;28616;44.746;19.678;2022-07-22T00:06:23;23.70;64.40
42979;DHT22;28616;44.746;19.678;2022-07-22T00:08:49;23.70;65.40
42979;DHT22;28616;44.746;19.678;2022-07-22T00:11:15;23.70;66.10
42979;DHT22;28616;44.746;19.678;2022-07-22T00:13:41;23.70;66.10
42979;DHT22;28616;44.746;19.678;2022-07-22T00:16:07;23.60;66.50
42979;DHT22;28616;44.746;19.678;2022-07-22T00:18:33;23.50;67.60
42979;DHT22;28616;44.746;19.678;2022-07-22T00:20:58;23.50;68.80
42979;DHT22;28616;44.746;19.678;2022-07-22T00:23:24;23.40;70.40
42979;DHT22;28616;44.746;19.678;2022-07-22T00:25:50;23.20;72.40
42979;DHT22;28616;44.746;19.678;2022-07-22T00:28:16;23.10;74.90
42979;DHT22;28616;44.746;19.678;2022-07-22T00:30:41;23.00;78.10
42979;DHT22;28616;44.746;19.678;2022-07-22T00:33:08;22.90;82.20
42979;DHT22;28616;44.746;19.678;2022-07-22T00:35:34;22.80;86.00
42979;DHT22;28616;44.746;19.678;2022-07-22T00:38:00;22.80;90.50
42979;DHT22;28616;44.746;19.678;2022-07-22T00:40:25;22.70;92.80
42979;DHT22;28616;44.746;19.678;2022-07-22T00:42:51;22.70;95.80
42979;DHT22;28616;44.746;19.678;2022-07-22T00:45:18;22.60;97.10
42979;DHT22;28616;44.746;19.678;2022-07-22T00:47:45;22.60;98.30
42979;DHT22;28616;44.746;19.678;2022-07-22T00:50:11;22.60;99.40
42979;DHT22;28616;44.746;19.678;2022-07-22T00:52:41;22.50;99.90
42979;DHT22;28616;44.746;19.678;2022-07-22T00:55:08;22.50;99.90
42979;DHT22;28616;44.746;19.678;2022-07-22T00:57:34;22.50;99.90
42979;DHT22;28616;44.746;19.678;2022-07-22T01:00:00;22.50;99.90
42979;DHT22;28616;44.746;19.678;2022-07-22T01:02:26;22.50;99.90
42979;DHT22;28616;44.746;19.678;2022-07-22T01:04:52;22.50;99.90
42979;DHT22;28616;44.746;19.678;2022-07-22T01:07:18;22.50;99.90
42979;DHT22;28616;44.746;19.678;2022-07-22T01:09:44;22.50;99.90
42979;DHT22;28616;44.746;19.678;2022-07-22T01:12:11;22.50;99.90
42979;DHT22;28616;44.746;19.678;2022-07-22T01:14:37;22.50;99.90
42979;DHT22;28616;44.746;19.678;2022-07-22T01:17:03;22.50;99.90
42979;DHT22;28616;44.746;19.678;2022-07-22T01:19:29;22.50;99.90
42979;DHT22;28616;44.746;19.678;2022-07-22T01:21:55;22.40;99.90
42979;DHT22;28616;44.746;19.678;2022-07-22T01:24:21;22.40;99.90
42979;DHT22;28616;44.746;19.678;2022-07-22T01:26:47;22.50;99.90
42979;DHT22;28616;44.746;19.678;2022-07-22T01:29:13;22.40;99.90
42979;DHT22;28616;44.746;19.678;2022-07-22T01:31:39;22.40;99.90
42979;DHT22;28616;44.746;19.678;2022-07-22T01:34:05;22.50;99.90
42979;DHT22;28616;44.746;19.678;2022-07-22T01:36:31;22.50;99.90
42979;DHT22;28616;44.746;19.678;2022-07-22T01:38:57;22.60;99.90
42979;DHT22;28616;44.746;19.678;2022-07-22T01:41:23;22.60;99.90
42979;DHT22;28616;44.746;19.678;2022-07-22T01:43:48;22.60;99.90
42979;DHT22;28616;44.746;19.678;2022-07-22T01:46:14;22.60;99.90
42979;DHT22;28616;44.746;19.678;2022-07-22T01:48:40;22.60;99.90
42979;DHT22;28616;44.746;19.678;2022-07-22T01:51:06;22.50;99.90
42979;DHT22;28616;44.746;19.678;2022-07-22T01:53:32;22.50;99.90
42979;DHT22;28616;44.746;19.678;2022-07-22T01:55:58;22.50;99.90
42979;DHT22;28616;44.746;19.678;2022-07-22T01:58:24;22.40;99.90
42979;DHT22;28616;44.746;19.678;2022-07-22T02:00:51;22.40;99.90
42979;DHT22;28616;44.746;19.678;2022-07-22T02:03:17;22.40;99.90
42979;DHT22;28616;44.746;19.678;2022-07-22T02:05:43;22.30;99.90
42979;DHT22;28616;44.746;19.678;2022-07-22T02:08:10;22.30;99.90
42979;DHT22;28616;44.746;19.678;2022-07-22T02:10:37;22.30;99.90
42979;DHT22;28616;44.746;19.678;2022-07-22T02:13:03;22.20;99.90
42979;DHT22;28616;44.746;19.678;2022-07-22T02:15:29;22.10;99.90
42979;DHT22;28616;44.746;19.678;2022-07-22T02:17:55;22.20;99.90
42979;DHT22;28616;44.746;19.678;2022-07-22T02:20:21;22.10;99.90
42979;DHT22;28616;44.746;19.678;2022-07-22T02:22:47;22.10;99.90
42979;DHT22;28616;44.746;19.678;2022-07-22T02:25:13;22.00;99.90
42979;DHT22;28616;44.746;19.678;2022-07-22T02:27:40;21.90;99.90
42979;DHT22;28616;44.746;19.678;2022-07-22T02:30:06;21.80;99.90
42979;DHT22;28616;44.746;19.678;2022-07-22T02:32:32;21.80;99.90
42979;DHT22;28616;44.746;19.678;2022-07-22T02:34:58;21.80;99.90
42979;DHT22;28616;44.746;19.678;2022-07-22T02:37:24;21.80;99.90
42979;DHT22;28616;44.746;19.678;2022-07-22T02:39:50;21.80;99.90
42979;DHT22;28616;44.746;19.678;2022-07-22T02:42:16;21.80;99.90
42979;DHT22;28616;44.746;19.678;2022-07-22T02:44:41;21.80;99.90
42979;DHT22;28616;44.746;19.678;2022-07-22T02:47:07;21.80;99.90
42979;DHT22;28616;44.746;19.678;2022-07-22T02:49:33;21.80;99.90
42979;DHT22;28616;44.746;19.678;2022-07-22T02:51:59;21.80;99.90
42979;DHT22;28616;44.746;19.678;2022-07-22T02:54:25;21.80;99.90
42979;DHT22;28616;44.746;19.678;2022-07-22T02:56:50;21.90;99.90
42979;DHT22;28616;44.746;19.678;2022-07-22T02:59:16;21.90;99.90
42979;DHT22;28616;44.746;19.678;2022-07-22T03:01:42;21.90;99.90
42979;DHT22;28616;44.746;19.678;2022-07-22T03:04:08;21.90;99.90
42979;DHT22;28616;44.746;19.678;2022-07-22T03:06:33;22.00;99.90
42979;DHT22;28616;44.746;19.678;2022-07-22T03:08:59;21.90;99.90
42979;DHT22;28616;44.746;19.678;2022-07-22T03:11:25;21.90;99.90
42979;DHT22;28616;44.746;19.678;2022-07-22T03:13:51;21.90;99.90
42979;DHT22;28616;44.746;19.678;2022-07-22T03:16:17;21.90;99.90
42979;DHT22;28616;44.746;19.678;2022-07-22T03:18:42;21.90;99.90
42979;DHT22;28616;44.746;19.678;2022-07-22T03:21:08;21.90;99.90
42979;DHT22;28616;44.746;19.678;2022-07-22T03:23:34;21.90;99.90
42979;DHT22;28616;44.746;19.678;2022-07-22T03:26:00;22.00;99.90
42979;DHT22;28616;44.746;19.678;2022-07-22T03:28:25;22.00;99.90
42979;DHT22;28616;44.746;19.678;2022-07-22T03:30:53;22.00;99.90
42979;DHT22;28616;44.746;19.678;2022-07-22T03:33:19;22.10;99.90
42979;DHT22;28616;44.746;19.678;2022-07-22T03:35:44;22.10;99.90
42979;DHT22;28616;44.746;19.678;2022-07-22T03:38:10;22.10;99.90
42979;DHT22;28616;44.746;19.678;2022-07-22T03:40:36;22.10;99.90
42979;DHT22;28616;44.746;19.678;2022-07-22T03:43:01;22.20;99.90
42979;DHT22;28616;44.746;19.678;2022-07-22T03:45:27;22.20;99.90
42979;DHT22;28616;44.746;19.678;2022-07-22T03:47:53;22.30;99.70
42979;DHT22;28616;44.746;19.678;2022-07-22T03:50:20;22.30;99.10
42979;DHT22;28616;44.746;19.678;2022-07-22T03:52:46;22.30;99.80
42979;DHT22;28616;44.746;19.678;2022-07-22T03:55:12;22.30;99.80
42979;DHT22;28616;44.746;19.678;2022-07-22T03:57:37;22.30;99.90
42979;DHT22;28616;44.746;19.678;2022-07-22T04:00:04;22.30;99.90
42979;DHT22;28616;44.746;19.678;2022-07-22T04:02:30;22.30;99.90
42979;DHT22;28616;44.746;19.678;2022-07-22T04:04:56;22.40;99.90
42979;DHT22;28616;44.746;19.678;2022-07-22T04:07:22;22.40;99.50
42979;DHT22;28616;44.746;19.678;2022-07-22T04:09:48;22.50;99.60
42979;DHT22;28616;44.746;19.678;2022-07-22T04:12:14;22.50;99.20
42979;DHT22;28616;44.746;19.678;2022-07-22T04:14:39;22.60;99.90
42979;DHT22;28616;44.746;19.678;2022-07-22T04:17:05;22.60;99.30
42979;DHT22;28616;44.746;19.678;2022-07-22T04:19:31;22.70;99.60
42979;DHT22;28616;44.746;19.678;2022-07-22T04:21:57;22.80;97.70
42979;DHT22;28616;44.746;19.678;2022-07-22T04:24:23;22.80;98.80
42979;DHT22;28616;44.746;19.678;2022-07-22T04:26:48;23.00;99.60
42979;DHT22;28616;44.746;19.678;2022-07-22T04:29:14;23.00;97.10
42979;DHT22;28616;44.746;19.678;2022-07-22T04:31:40;23.10;98.30
42979;DHT22;28616;44.746;19.678;2022-07-22T04:34:06;23.20;96.90
42979;DHT22;28616;44.746;19.678;2022-07-22T04:36:31;23.20;94.10
42979;DHT22;28616;44.746;19.678;2022-07-22T04:38:57;23.30;93.90
42979;DHT22;28616;44.746;19.678;2022-07-22T04:41:23;23.40;93.90
42979;DHT22;28616;44.746;19.678;2022-07-22T04:43:49;23.60;92.00
42979;DHT22;28616;44.746;19.678;2022-07-22T04:46:15;23.60;92.20
42979;DHT22;28616;44.746;19.678;2022-07-22T04:48:41;23.70;92.30
42979;DHT22;28616;44.746;19.678;2022-07-22T04:51:07;23.90;90.20
42979;DHT22;28616;44.746;19.678;2022-07-22T22:41:44;25.10;45.70
42979;DHT22;28616;44.746;19.678;2022-07-22T22:44:10;25.00;46.40
42979;DHT22;28616;44.746;19.678;2022-07-22T22:46:36;24.80;47.30
42979;DHT22;28616;44.746;19.678;2022-07-22T22:49:02;24.70;47.30
42979;DHT22;28616;44.746;19.678;2022-07-22T22:51:28;24.70;47.50
42979;DHT22;28616;44.746;19.678;2022-07-22T22:53:53;24.60;47.70
42979;DHT22;28616;44.746;19.678;2022-07-22T22:56:19;24.50;48.90
42979;DHT22;28616;44.746;19.678;2022-07-22T22:58:45;24.50;48.80
42979;DHT22;28616;44.746;19.678;2022-07-22T23:01:11;24.40;48.40
42979;DHT22;28616;44.746;19.678;2022-07-22T23:03:37;24.40;48.40
42979;DHT22;28616;44.746;19.678;2022-07-22T23:06:04;24.40;48.50
42979;DHT22;28616;44.746;19.678;2022-07-22T23:08:30;24.30;48.70
42979;DHT22;28616;44.746;19.678;2022-07-22T23:10:57;24.30;48.90
42979;DHT22;28616;44.746;19.678;2022-07-22T23:13:23;24.20;48.90
42979;DHT22;28616;44.746;19.678;2022-07-22T23:15:49;24.10;48.90
42979;DHT22;28616;44.746;19.678;2022-07-22T23:18:15;24.10;49.00
42979;DHT22;28616;44.746;19.678;2022-07-22T23:20:41;24.10;48.90
42979;DHT22;28616;44.746;19.678;2022-07-22T23:23:21;24.10;49.20
42979;DHT22;28616;44.746;19.678;2022-07-22T23:25:47;24.00;49.60
42979;DHT22;28616;44.746;19.678;2022-07-22T23:28:13;24.00;49.10
42979;DHT22;28616;44.746;19.678;2022-07-22T23:30:39;24.00;49.30
42979;DHT22;28616;44.746;19.678;2022-07-22T23:33:05;23.90;49.50
42979;DHT22;28616;44.746;19.678;2022-07-22T23:35:31;23.90;49.90
42979;DHT22;28616;44.746;19.678;2022-07-22T23:38:00;23.90;50.50
42979;DHT22;28616;44.746;19.678;2022-07-22T23:40:27;23.90;50.20
42979;DHT22;28616;44.746;19.678;2022-07-22T23:42:52;23.80;50.10
42979;DHT22;28616;44.746;19.678;2022-07-22T23:45:18;23.80;50.90
42979;DHT22;28616;44.746;19.678;2022-07-22T23:47:44;23.80;51.00
42979;DHT22;28616;44.746;19.678;2022-07-22T23:50:10;23.80;50.40
42979;DHT22;28616;44.746;19.678;2022-07-22T23:52:35;23.80;50.10
42979;DHT22;28616;44.746;19.678;2022-07-22T23:55:01;23.80;50.30
42979;DHT22;28616;44.746;19.678;2022-07-22T23:57:27;23.80;50.40
42979;DHT22;28616;44.746;19.678;2022-07-22T23:59:52;23.80;50.60
